Main page
METAR-TAF:

METAR-TAF

Airports :

Cardiff Airport

Cardiff, Wales

latitude: 51-24N, longitude: 003-21W, elevation: 67 m

Current weather observation

The report was made 21 minutes ago, at 05:20 UTC
Wind 5 kt from the West
Temperature 14°C
Humidity 88%
Pressure 1015 hPa
Visibility 10 km or more
Scattered clouds at a height of 2000 ft

METAR: EGFF 170520Z AUTO 28005KT 9999 SCT020 14/12 Q1015

Time: 06:41 (05:41 UTC)

Forecast

The report was made 47 minutes ago, at 04:54 UTC
Forecast valid from 17 at 06 UTC to 18 at 06 UTC
Wind 9 kt from the West
Visibility 10 km or more
Scattered clouds at a height of 4500 ft
Probability 30%
from 18 at 02 UTC to 18 at 06 UTC
Visibility: 8000 m

TAF: EGFF 170454Z 1706/1806 28009KT 9999 SCT045 PROB30 1802/1806 8000

Weather observations and forecasts of more than 4000 airports (METAR and TAF reports).

The available stations are represented by yellow and red dots on the map.

Hover mouse over dot to see the name of the station.

Then click to see weather observations and forecasts.

To change the map : click on the green buttons with a black cross to zoom in, on the green button with a dash to zoom out, or on the green arrows for adjacent maps.


METAR-TAF: